sensor_id;sensor_type;location;lat;lon;timestamp;temperature;humidity
14934;DHT22;7560;51.364;12.384;2023-02-07T00:02:05;-2.70;99.90
14934;DHT22;7560;51.364;12.384;2023-02-07T00:07:07;-2.80;99.90
14934;DHT22;7560;51.364;12.384;2023-02-07T00:12:09;-2.90;99.90
14934;DHT22;7560;51.364;12.384;2023-02-07T00:17:11;-3.00;99.90
14934;DHT22;7560;51.364;12.384;2023-02-07T00:22:13;-3.00;99.90
14934;DHT22;7560;51.364;12.384;2023-02-07T00:27:15;-3.10;99.90
14934;DHT22;7560;51.364;12.384;2023-02-07T00:32:17;-3.20;99.90
14934;DHT22;7560;51.364;12.384;2023-02-07T00:37:19;-3.20;99.90
14934;DHT22;7560;51.364;12.384;2023-02-07T00:42:20;-3.20;99.90
14934;DHT22;7560;51.364;12.384;2023-02-07T00:47:22;-3.20;99.90
14934;DHT22;7560;51.364;12.384;2023-02-07T00:52:24;-3.30;99.90
14934;DHT22;7560;51.364;12.384;2023-02-07T00:57:26;-3.40;99.90
14934;DHT22;7560;51.364;12.384;2023-02-07T01:02:27;-3.40;99.90
14934;DHT22;7560;51.364;12.384;2023-02-07T01:07:29;-3.40;99.90
14934;DHT22;7560;51.364;12.384;2023-02-07T01:12:31;-3.50;99.90
14934;DHT22;7560;51.364;12.384;2023-02-07T01:17:33;-3.60;99.90
14934;DHT22;7560;51.364;12.384;2023-02-07T01:22:36;-3.50;99.90
14934;DHT22;7560;51.364;12.384;2023-02-07T01:27:38;-3.60;99.90
14934;DHT22;7560;51.364;12.384;2023-02-07T01:32:40;-3.60;99.90
14934;DHT22;7560;51.364;12.384;2023-02-07T01:37:42;-3.60;99.90
14934;DHT22;7560;51.364;12.384;2023-02-07T01:42:44;-3.70;99.90
14934;DHT22;7560;51.364;12.384;2023-02-07T01:47:45;-3.70;99.90
14934;DHT22;7560;51.364;12.384;2023-02-07T01:52:47;-3.70;99.90
14934;DHT22;7560;51.364;12.384;2023-02-07T01:57:49;-3.70;99.90
14934;DHT22;7560;51.364;12.384;2023-02-07T02:02:52;-3.70;99.90
14934;DHT22;7560;51.364;12.384;2023-02-07T02:07:53;-3.80;99.90
14934;DHT22;7560;51.364;12.384;2023-02-07T02:40:08;-4.00;99.90
14934;DHT22;7560;51.364;12.384;2023-02-07T02:50:27;-4.10;99.90
14934;DHT22;7560;51.364;12.384;2023-02-07T02:55:53;-4.10;99.90
14934;DHT22;7560;51.364;12.384;2023-02-07T03:22:20;-4.30;99.90
14934;DHT22;7560;51.364;12.384;2023-02-07T03:27:25;-4.20;99.90
14934;DHT22;7560;51.364;12.384;2023-02-07T03:32:36;-4.20;99.90
14934;DHT22;7560;51.364;12.384;2023-02-07T03:37:43;-4.30;99.90
14934;DHT22;7560;51.364;12.384;2023-02-07T03:43:02;-4.30;99.90
14934;DHT22;7560;51.364;12.384;2023-02-07T03:48:05;-4.30;99.90
14934;DHT22;7560;51.364;12.384;2023-02-07T03:53:07;-4.30;99.90
14934;DHT22;7560;51.364;12.384;2023-02-07T03:58:09;-4.30;99.90
14934;DHT22;7560;51.364;12.384;2023-02-07T04:03:11;-4.20;99.90
14934;DHT22;7560;51.364;12.384;2023-02-07T04:08:13;-4.20;99.90
14934;DHT22;7560;51.364;12.384;2023-02-07T04:13:15;-4.20;99.90
14934;DHT22;7560;51.364;12.384;2023-02-07T04:18:16;-4.20;99.90
14934;DHT22;7560;51.364;12.384;2023-02-07T04:23:18;-4.20;99.90
14934;DHT22;7560;51.364;12.384;2023-02-07T04:28:20;-4.20;99.90
14934;DHT22;7560;51.364;12.384;2023-02-07T04:33:22;-4.20;99.90
14934;DHT22;7560;51.364;12.384;2023-02-07T04:38:24;-4.20;99.90
14934;DHT22;7560;51.364;12.384;2023-02-07T04:43:27;-4.10;99.90
14934;DHT22;7560;51.364;12.384;2023-02-07T04:48:30;-4.10;99.90
14934;DHT22;7560;51.364;12.384;2023-02-07T04:53:33;-4.10;99.90
14934;DHT22;7560;51.364;12.384;2023-02-07T04:58:34;-3.90;99.90
14934;DHT22;7560;51.364;12.384;2023-02-07T05:03:36;-3.70;99.90
14934;DHT22;7560;51.364;12.384;2023-02-07T05:08:38;-3.40;99.90
14934;DHT22;7560;51.364;12.384;2023-02-07T05:13:40;-3.30;99.90
14934;DHT22;7560;51.364;12.384;2023-02-07T05:18:42;-3.20;99.90
14934;DHT22;7560;51.364;12.384;2023-02-07T05:23:43;-3.10;99.90
14934;DHT22;7560;51.364;12.384;2023-02-07T05:28:45;-3.10;99.90
14934;DHT22;7560;51.364;12.384;2023-02-07T05:33:47;-3.00;99.90
14934;DHT22;7560;51.364;12.384;2023-02-07T05:38:49;-3.10;99.90
14934;DHT22;7560;51.364;12.384;2023-02-07T05:43:51;-3.00;99.90
14934;DHT22;7560;51.364;12.384;2023-02-07T05:48:52;-2.90;99.90
14934;DHT22;7560;51.364;12.384;2023-02-07T05:53:54;-2.90;99.90
14934;DHT22;7560;51.364;12.384;2023-02-07T05:58:56;-2.90;99.90
14934;DHT22;7560;51.364;12.384;2023-02-07T06:03:58;-2.80;99.90
14934;DHT22;7560;51.364;12.384;2023-02-07T06:09:00;-2.90;99.90
14934;DHT22;7560;51.364;12.384;2023-02-07T06:14:01;-2.80;99.90
14934;DHT22;7560;51.364;12.384;2023-02-07T06:19:03;-2.70;99.90
14934;DHT22;7560;51.364;12.384;2023-02-07T06:24:06;-2.70;99.90
14934;DHT22;7560;51.364;12.384;2023-02-07T06:29:08;-2.80;99.90
14934;DHT22;7560;51.364;12.384;2023-02-07T06:34:10;-2.80;99.90
14934;DHT22;7560;51.364;12.384;2023-02-07T06:39:12;-2.70;99.90
14934;DHT22;7560;51.364;12.384;2023-02-07T06:44:14;-2.70;99.90
14934;DHT22;7560;51.364;12.384;2023-02-07T06:49:15;-2.70;99.90
14934;DHT22;7560;51.364;12.384;2023-02-07T06:54:17;-2.60;99.90
14934;DHT22;7560;51.364;12.384;2023-02-07T06:59:19;-2.60;99.90
14934;DHT22;7560;51.364;12.384;2023-02-07T07:04:21;-2.60;99.90
14934;DHT22;7560;51.364;12.384;2023-02-07T07:09:23;-2.60;99.90
14934;DHT22;7560;51.364;12.384;2023-02-07T07:14:25;-2.60;99.90
14934;DHT22;7560;51.364;12.384;2023-02-07T07:19:26;-2.50;99.90
14934;DHT22;7560;51.364;12.384;2023-02-07T07:24:28;-2.50;99.90
14934;DHT22;7560;51.364;12.384;2023-02-07T07:29:30;-2.50;99.90
14934;DHT22;7560;51.364;12.384;2023-02-07T07:34:32;-2.50;99.90
14934;DHT22;7560;51.364;12.384;2023-02-07T07:39:34;-2.40;99.90
14934;DHT22;7560;51.364;12.384;2023-02-07T07:44:36;-2.20;99.90
14934;DHT22;7560;51.364;12.384;2023-02-07T07:49:39;-2.20;99.90
14934;DHT22;7560;51.364;12.384;2023-02-07T07:54:41;-2.20;99.90
14934;DHT22;7560;51.364;12.384;2023-02-07T07:59:43;-1.90;99.90
14934;DHT22;7560;51.364;12.384;2023-02-07T08:04:44;-1.80;99.90
14934;DHT22;7560;51.364;12.384;2023-02-07T08:09:46;-1.70;99.90
14934;DHT22;7560;51.364;12.384;2023-02-07T08:14:49;-1.50;99.90
14934;DHT22;7560;51.364;12.384;2023-02-07T08:19:51;-1.40;99.90
14934;DHT22;7560;51.364;12.384;2023-02-07T08:24:52;-1.40;99.90
14934;DHT22;7560;51.364;12.384;2023-02-07T08:29:56;-1.30;99.90
14934;DHT22;7560;51.364;12.384;2023-02-07T08:34:58;-1.20;99.90
14934;DHT22;7560;51.364;12.384;2023-02-07T08:40:00;-1.20;99.90
14934;DHT22;7560;51.364;12.384;2023-02-07T08:45:02;-1.50;99.90
14934;DHT22;7560;51.364;12.384;2023-02-07T08:50:06;-1.10;99.90
14934;DHT22;7560;51.364;12.384;2023-02-07T08:55:09;-1.60;99.90
14934;DHT22;7560;51.364;12.384;2023-02-07T09:00:12;-2.10;99.90
14934;DHT22;7560;51.364;12.384;2023-02-07T09:05:14;-1.60;99.90
14934;DHT22;7560;51.364;12.384;2023-02-07T09:10:15;-1.40;99.90
14934;DHT22;7560;51.364;12.384;2023-02-07T09:15:18;-1.10;99.90
14934;DHT22;7560;51.364;12.384;2023-02-07T09:20:20;-1.00;99.90
14934;DHT22;7560;51.364;12.384;2023-02-07T09:25:22;-0.70;99.90
14934;DHT22;7560;51.364;12.384;2023-02-07T09:30:24;-0.70;99.90
14934;DHT22;7560;51.364;12.384;2023-02-07T09:35:26;-0.50;99.90
14934;DHT22;7560;51.364;12.384;2023-02-07T09:40:31;-0.30;99.90
14934;DHT22;7560;51.364;12.384;2023-02-07T09:45:37;0.00;99.90
14934;DHT22;7560;51.364;12.384;2023-02-07T09:50:50;0.20;99.90
14934;DHT22;7560;51.364;12.384;2023-02-07T09:55:58;0.40;99.90
14934;DHT22;7560;51.364;12.384;2023-02-07T10:01:07;0.40;99.90
14934;DHT22;7560;51.364;12.384;2023-02-07T10:06:16;0.40;99.90
14934;DHT22;7560;51.364;12.384;2023-02-07T10:12:02;-0.10;99.90
14934;DHT22;7560;51.364;12.384;2023-02-07T10:22:44;0.20;99.90
14934;DHT22;7560;51.364;12.384;2023-02-07T10:33:15;-0.40;99.90
14934;DHT22;7560;51.364;12.384;2023-02-07T10:43:33;-0.20;99.90
14934;DHT22;7560;51.364;12.384;2023-02-07T10:48:36;0.00;99.90
14934;DHT22;7560;51.364;12.384;2023-02-07T10:53:59;-0.20;99.90
14934;DHT22;7560;51.364;12.384;2023-02-07T10:59:03;-0.20;99.90
14934;DHT22;7560;51.364;12.384;2023-02-07T11:04:42;-0.30;99.90
14934;DHT22;7560;51.364;12.384;2023-02-07T11:09:43;0.20;99.90
14934;DHT22;7560;51.364;12.384;2023-02-07T11:15:05;0.20;99.90
14934;DHT22;7560;51.364;12.384;2023-02-07T11:20:26;0.50;99.90
14934;DHT22;7560;51.364;12.384;2023-02-07T11:25:32;1.00;99.90
14934;DHT22;7560;51.364;12.384;2023-02-07T11:30:36;0.60;99.90
14934;DHT22;7560;51.364;12.384;2023-02-07T11:35:38;0.20;99.90
14934;DHT22;7560;51.364;12.384;2023-02-07T11:40:47;0.30;99.90
14934;DHT22;7560;51.364;12.384;2023-02-07T11:45:51;0.40;99.90
14934;DHT22;7560;51.364;12.384;2023-02-07T11:51:00;0.40;99.90
14934;DHT22;7560;51.364;12.384;2023-02-07T11:56:04;1.10;99.90
14934;DHT22;7560;51.364;12.384;2023-02-07T12:01:07;1.50;99.90
14934;DHT22;7560;51.364;12.384;2023-02-07T12:06:14;0.40;99.90
14934;DHT22;7560;51.364;12.384;2023-02-07T12:11:25;0.40;99.90
14934;DHT22;7560;51.364;12.384;2023-02-07T12:16:37;0.80;99.90
14934;DHT22;7560;51.364;12.384;2023-02-07T12:22:09;1.10;99.90
14934;DHT22;7560;51.364;12.384;2023-02-07T12:27:17;0.90;99.90
14934;DHT22;7560;51.364;12.384;2023-02-07T12:32:49;1.60;99.90
14934;DHT22;7560;51.364;12.384;2023-02-07T12:38:15;1.50;99.90
14934;DHT22;7560;51.364;12.384;2023-02-07T12:43:35;0.90;99.90
14934;DHT22;7560;51.364;12.384;2023-02-07T13:10:48;0.20;99.90
14934;DHT22;7560;51.364;12.384;2023-02-07T13:16:01;0.00;99.90
14934;DHT22;7560;51.364;12.384;2023-02-07T13:26:22;0.80;99.90
14934;DHT22;7560;51.364;12.384;2023-02-07T13:31:42;0.70;99.90
14934;DHT22;7560;51.364;12.384;2023-02-07T13:36:46;1.00;99.90
14934;DHT22;7560;51.364;12.384;2023-02-07T13:42:03;0.70;99.90
14934;DHT22;7560;51.364;12.384;2023-02-07T13:52:44;-0.40;99.90
14934;DHT22;7560;51.364;12.384;2023-02-07T13:57:50;-0.40;99.90
14934;DHT22;7560;51.364;12.384;2023-02-07T14:03:21;0.10;99.90
14934;DHT22;7560;51.364;12.384;2023-02-07T14:08:28;0.20;99.90
14934;DHT22;7560;51.364;12.384;2023-02-07T14:13:32;0.00;99.90
14934;DHT22;7560;51.364;12.384;2023-02-07T14:18:53;0.10;99.90
14934;DHT22;7560;51.364;12.384;2023-02-07T14:34:57;0.00;99.90
14934;DHT22;7560;51.364;12.384;2023-02-07T14:40:17;0.10;99.90
14934;DHT22;7560;51.364;12.384;2023-02-07T14:45:21;0.50;99.90
14934;DHT22;7560;51.364;12.384;2023-02-07T14:50:26;0.50;99.90
14934;DHT22;7560;51.364;12.384;2023-02-07T14:55:40;0.30;99.90
14934;DHT22;7560;51.364;12.384;2023-02-07T15:00:48;0.20;99.90
14934;DHT22;7560;51.364;12.384;2023-02-07T15:05:55;0.00;99.90
14934;DHT22;7560;51.364;12.384;2023-02-07T15:11:01;-0.20;99.90
14934;DHT22;7560;51.364;12.384;2023-02-07T15:21:22;-0.60;99.90
14934;DHT22;7560;51.364;12.384;2023-02-07T15:26:26;-0.60;99.90
14934;DHT22;7560;51.364;12.384;2023-02-07T15:31:29;-0.70;99.90
14934;DHT22;7560;51.364;12.384;2023-02-07T15:36:37;-0.70;99.90
14934;DHT22;7560;51.364;12.384;2023-02-07T15:41:39;-0.80;99.90
14934;DHT22;7560;51.364;12.384;2023-02-07T15:52:04;-1.00;99.90
14934;DHT22;7560;51.364;12.384;2023-02-07T15:57:12;-1.10;99.90
14934;DHT22;7560;51.364;12.384;2023-02-07T16:02:29;-1.10;99.90
14934;DHT22;7560;51.364;12.384;2023-02-07T16:07:32;-1.10;99.90
14934;DHT22;7560;51.364;12.384;2023-02-07T16:12:50;-1.20;99.90
14934;DHT22;7560;51.364;12.384;2023-02-07T16:17:54;-1.20;99.90
14934;DHT22;7560;51.364;12.384;2023-02-07T16:22:58;-1.20;99.90
14934;DHT22;7560;51.364;12.384;2023-02-07T16:28:05;-1.30;99.90
14934;DHT22;7560;51.364;12.384;2023-02-07T16:33:11;-1.40;99.90
14934;DHT22;7560;51.364;12.384;2023-02-07T16:38:14;-1.50;99.90
14934;DHT22;7560;51.364;12.384;2023-02-07T16:43:37;-1.60;99.90
14934;DHT22;7560;51.364;12.384;2023-02-07T16:48:40;-1.60;99.90
14934;DHT22;7560;51.364;12.384;2023-02-07T16:53:41;-1.50;99.90
14934;DHT22;7560;51.364;12.384;2023-02-07T16:58:43;-1.30;99.90
14934;DHT22;7560;51.364;12.384;2023-02-07T17:03:45;-1.30;99.90
14934;DHT22;7560;51.364;12.384;2023-02-07T17:08:48;-1.30;99.90
14934;DHT22;7560;51.364;12.384;2023-02-07T17:13:51;-1.40;99.90
14934;DHT22;7560;51.364;12.384;2023-02-07T17:18:53;-1.30;99.90
14934;DHT22;7560;51.364;12.384;2023-02-07T17:23:55;-1.20;99.90
14934;DHT22;7560;51.364;12.384;2023-02-07T17:28:57;-1.10;99.90
14934;DHT22;7560;51.364;12.384;2023-02-07T17:33:59;-1.30;99.90
14934;DHT22;7560;51.364;12.384;2023-02-07T17:39:01;-1.20;99.90
14934;DHT22;7560;51.364;12.384;2023-02-07T17:44:05;-1.20;99.90
14934;DHT22;7560;51.364;12.384;2023-02-07T17:49:15;-1.30;99.90
14934;DHT22;7560;51.364;12.384;2023-02-07T17:54:18;-1.30;99.90
14934;DHT22;7560;51.364;12.384;2023-02-07T17:59:23;-1.30;99.90
14934;DHT22;7560;51.364;12.384;2023-02-07T18:04:25;-1.30;99.90
14934;DHT22;7560;51.364;12.384;2023-02-07T18:09:28;-1.30;99.90
14934;DHT22;7560;51.364;12.384;2023-02-07T18:14:30;-1.40;99.90
14934;DHT22;7560;51.364;12.384;2023-02-07T18:19:32;-1.50;99.90
14934;DHT22;7560;51.364;12.384;2023-02-07T18:24:33;-1.60;99.90
14934;DHT22;7560;51.364;12.384;2023-02-07T18:29:35;-1.60;99.90
14934;DHT22;7560;51.364;12.384;2023-02-07T18:34:39;-1.60;99.90
14934;DHT22;7560;51.364;12.384;2023-02-07T18:39:41;-1.70;99.90
14934;DHT22;7560;51.364;12.384;2023-02-07T18:44:43;-1.80;99.90
14934;DHT22;7560;51.364;12.384;2023-02-07T18:49:45;-1.90;99.90
14934;DHT22;7560;51.364;12.384;2023-02-07T18:54:48;-1.90;99.90
14934;DHT22;7560;51.364;12.384;2023-02-07T18:59:50;-2.10;99.90
14934;DHT22;7560;51.364;12.384;2023-02-07T19:04:52;-2.20;99.90
14934;DHT22;7560;51.364;12.384;2023-02-07T19:09:55;-2.20;99.90
14934;DHT22;7560;51.364;12.384;2023-02-07T19:14:56;-2.10;99.90
14934;DHT22;7560;51.364;12.384;2023-02-07T19:19:58;-2.10;99.90
14934;DHT22;7560;51.364;12.384;2023-02-07T19:25:01;-2.10;99.90
14934;DHT22;7560;51.364;12.384;2023-02-07T19:30:03;-2.10;99.90
14934;DHT22;7560;51.364;12.384;2023-02-07T19:35:07;-2.20;99.90
14934;DHT22;7560;51.364;12.384;2023-02-07T19:40:10;-2.20;99.90
14934;DHT22;7560;51.364;12.384;2023-02-07T19:45:12;-2.20;99.90
14934;DHT22;7560;51.364;12.384;2023-02-07T19:50:14;-2.20;99.90
14934;DHT22;7560;51.364;12.384;2023-02-07T19:55:16;-2.30;99.90
14934;DHT22;7560;51.364;12.384;2023-02-07T20:00:18;-2.40;99.90
14934;DHT22;7560;51.364;12.384;2023-02-07T20:05:20;-2.40;99.90
14934;DHT22;7560;51.364;12.384;2023-02-07T20:10:22;-2.40;99.90
14934;DHT22;7560;51.364;12.384;2023-02-07T20:15:24;-2.40;99.90
14934;DHT22;7560;51.364;12.384;2023-02-07T20:20:26;-2.50;99.90
14934;DHT22;7560;51.364;12.384;2023-02-07T20:25:28;-2.50;99.90
14934;DHT22;7560;51.364;12.384;2023-02-07T20:30:34;-2.50;99.90
14934;DHT22;7560;51.364;12.384;2023-02-07T20:35:37;-2.50;99.90
14934;DHT22;7560;51.364;12.384;2023-02-07T20:40:39;-2.50;99.90
14934;DHT22;7560;51.364;12.384;2023-02-07T20:45:42;-2.70;99.90
14934;DHT22;7560;51.364;12.384;2023-02-07T20:50:44;-2.60;99.90
14934;DHT22;7560;51.364;12.384;2023-02-07T20:55:46;-2.50;99.90
14934;DHT22;7560;51.364;12.384;2023-02-07T21:00:47;-2.40;99.90
14934;DHT22;7560;51.364;12.384;2023-02-07T21:05:49;-2.30;99.90
14934;DHT22;7560;51.364;12.384;2023-02-07T21:10:51;-2.20;99.90
14934;DHT22;7560;51.364;12.384;2023-02-07T21:15:56;-2.20;99.90
14934;DHT22;7560;51.364;12.384;2023-02-07T21:21:06;-2.10;99.90
14934;DHT22;7560;51.364;12.384;2023-02-07T21:26:12;-2.10;99.90
14934;DHT22;7560;51.364;12.384;2023-02-07T21:31:17;-2.00;99.90
14934;DHT22;7560;51.364;12.384;2023-02-07T21:36:24;-1.90;99.90
14934;DHT22;7560;51.364;12.384;2023-02-07T21:41:27;-2.00;99.90
14934;DHT22;7560;51.364;12.384;2023-02-07T21:46:33;-1.90;99.90
14934;DHT22;7560;51.364;12.384;2023-02-07T21:51:36;-1.90;99.90
14934;DHT22;7560;51.364;12.384;2023-02-07T21:56:40;-1.80;99.90
14934;DHT22;7560;51.364;12.384;2023-02-07T22:01:43;-1.80;99.90
14934;DHT22;7560;51.364;12.384;2023-02-07T22:06:46;-1.80;99.90
14934;DHT22;7560;51.364;12.384;2023-02-07T22:11:50;-1.80;99.90
14934;DHT22;7560;51.364;12.384;2023-02-07T22:16:52;-1.80;99.90
14934;DHT22;7560;51.364;12.384;2023-02-07T22:21:54;-1.70;99.90
14934;DHT22;7560;51.364;12.384;2023-02-07T22:26:57;-1.70;99.90
14934;DHT22;7560;51.364;12.384;2023-02-07T22:31:59;-1.80;99.90
14934;DHT22;7560;51.364;12.384;2023-02-07T22:37:01;-1.80;99.90
14934;DHT22;7560;51.364;12.384;2023-02-07T22:42:04;-1.90;99.90
14934;DHT22;7560;51.364;12.384;2023-02-07T22:47:07;-1.70;99.90
14934;DHT22;7560;51.364;12.384;2023-02-07T22:52:09;-1.80;99.90
14934;DHT22;7560;51.364;12.384;2023-02-07T22:57:11;-2.00;99.90
14934;DHT22;7560;51.364;12.384;2023-02-07T23:02:16;-2.20;99.90
14934;DHT22;7560;51.364;12.384;2023-02-07T23:07:19;-2.30;99.90
14934;DHT22;7560;51.364;12.384;2023-02-07T23:12:21;-2.40;99.90
14934;DHT22;7560;51.364;12.384;2023-02-07T23:17:22;-2.10;99.90
14934;DHT22;7560;51.364;12.384;2023-02-07T23:22:25;-2.30;99.90
14934;DHT22;7560;51.364;12.384;2023-02-07T23:27:26;-2.20;99.90
14934;DHT22;7560;51.364;12.384;2023-02-07T23:32:28;-2.20;99.90
14934;DHT22;7560;51.364;12.384;2023-02-07T23:37:30;-2.40;99.90
14934;DHT22;7560;51.364;12.384;2023-02-07T23:42:33;-2.40;99.90
14934;DHT22;7560;51.364;12.384;2023-02-07T23:47:38;-2.30;99.90
14934;DHT22;7560;51.364;12.384;2023-02-07T23:52:40;-2.60;99.90
14934;DHT22;7560;51.364;12.384;2023-02-07T23:57:42;-2.60;99.90
